Terminal Aerodrome Forecast
Issued by NWS Medford, OR

Home | Current Version | Previous Version | Text Only | Print | Product List | Glossary On
Versions: 1 2 3 4 5 6 7 8 9 10 11 12
000
FTUS46 KMFR 042339
TAFMFR
TAF
KMFR 042339Z 0500/0524 34005KT P6SM -SHRA VCTS BKN060CB BKN100
     FM050400 VRB03KT P6SM VCSH SCT025 OVC040
     FM052200 32005KT P6SM -SHRA VCTS SCT040 BKN070CB=

USA.gov is the U.S. government's official web portal to all federal, state and local government web resources and services.